createdAt,value
2023-02-11T00:01:23.323Z,30.27
2023-02-11T00:03:50.381Z,31.90
2023-02-11T00:06:17.619Z,27.93
2023-02-11T00:08:45.106Z,30.67
2023-02-11T00:11:15.049Z,30.43
2023-02-11T00:13:42.359Z,29.97
2023-02-11T00:16:10.917Z,29.83
2023-02-11T00:18:38.060Z,27.73
2023-02-11T00:21:09.218Z,28.00
2023-02-11T00:23:36.733Z,32.30
2023-02-11T00:26:04.362Z,30.37
2023-02-11T00:28:32.620Z,31.47
2023-02-11T00:31:01.681Z,30.53
2023-02-11T00:33:29.185Z,31.10
2023-02-11T00:35:56.088Z,32.27
2023-02-11T00:38:22.977Z,30.83
2023-02-11T00:40:49.935Z,30.63
2023-02-11T00:43:16.837Z,30.37
2023-02-11T00:45:45.183Z,29.97
2023-02-11T00:48:12.157Z,31.00
2023-02-11T00:50:39.082Z,29.70
2023-02-11T00:53:06.071Z,35.27
2023-02-11T00:55:33.396Z,34.33
2023-02-11T00:58:00.333Z,32.00
2023-02-11T01:00:27.594Z,31.40
2023-02-11T01:02:56.242Z,36.73
2023-02-11T01:05:23.212Z,31.80
2023-02-11T01:07:50.301Z,32.73
2023-02-11T01:10:17.391Z,33.30
2023-02-11T01:12:44.260Z,33.40
2023-02-11T01:15:13.553Z,31.60
2023-02-11T01:17:40.530Z,30.10
2023-02-11T01:20:14.681Z,29.17
2023-02-11T01:22:41.827Z,30.50
2023-02-11T01:25:09.509Z,31.77
2023-02-11T01:27:36.801Z,29.97
2023-02-11T01:30:05.473Z,32.37
2023-02-11T01:32:32.788Z,31.47
2023-02-11T01:34:59.812Z,34.23
2023-02-11T01:37:28.182Z,29.67
2023-02-11T01:39:55.112Z,32.40
2023-02-11T01:42:23.893Z,31.57
2023-02-11T01:44:53.122Z,31.17
2023-02-11T01:47:21.470Z,31.00
2023-02-11T01:49:53.022Z,31.00
2023-02-11T01:52:23.680Z,30.43
2023-02-11T01:55:14.050Z,29.77
2023-02-11T01:57:45.155Z,29.80
2023-02-11T02:00:15.851Z,30.60
2023-02-11T02:02:50.398Z,28.70
2023-02-11T02:05:24.352Z,27.53
2023-02-11T02:07:58.820Z,28.37
2023-02-11T02:10:28.896Z,28.80
2023-02-11T02:12:55.958Z,29.90
2023-02-11T02:15:29.387Z,27.17
2023-02-11T02:18:09.835Z,27.40
2023-02-11T02:21:10.037Z,30.33
2023-02-11T02:23:52.646Z,28.90
2023-02-11T02:27:00.332Z,25.17
2023-02-11T02:29:48.142Z,28.13
2023-02-11T02:32:33.554Z,29.93
2023-02-11T02:35:08.237Z,29.20
2023-02-11T02:37:40.432Z,27.90
2023-02-11T02:40:11.954Z,29.80
2023-02-11T02:42:41.346Z,29.50
2023-02-11T02:45:11.001Z,31.80
2023-02-11T02:47:39.276Z,27.57
2023-02-11T02:50:08.539Z,27.93
2023-02-11T02:52:39.238Z,29.97
2023-02-11T02:55:13.991Z,32.03
2023-02-11T02:57:58.245Z,29.37
2023-02-11T03:00:33.874Z,27.60
2023-02-11T03:03:15.619Z,28.53
2023-02-11T03:05:49.983Z,28.70
2023-02-11T03:08:22.263Z,30.87
2023-02-11T03:10:52.096Z,30.53
2023-02-11T03:13:22.193Z,30.07
2023-02-11T03:15:53.540Z,26.70
2023-02-11T03:18:26.117Z,30.23
2023-02-11T03:20:54.445Z,28.50
2023-02-11T03:23:27.056Z,28.77
2023-02-11T03:25:59.774Z,31.13
2023-02-11T03:28:31.046Z,29.70
2023-02-11T03:31:06.433Z,30.13
2023-02-11T03:33:39.827Z,29.60
2023-02-11T03:36:11.953Z,33.77
2023-02-11T03:38:44.941Z,30.77
2023-02-11T03:41:15.346Z,31.37
2023-02-11T03:43:44.839Z,31.40
2023-02-11T03:46:15.291Z,32.23
2023-02-11T03:48:46.963Z,30.87
2023-02-11T03:51:16.019Z,31.20
2023-02-11T03:53:46.426Z,28.83
2023-02-11T03:56:16.912Z,27.97
2023-02-11T03:58:45.119Z,30.53
2023-02-11T04:01:12.442Z,30.67
2023-02-11T04:03:39.386Z,29.03
2023-02-11T04:06:08.700Z,29.47
2023-02-11T04:08:35.861Z,32.00
2023-02-11T04:11:02.725Z,30.07
2023-02-11T04:13:30.119Z,29.67
2023-02-11T04:15:57.098Z,30.23
2023-02-11T04:18:24.046Z,26.03
2023-02-11T04:20:51.411Z,28.63
2023-02-11T04:23:19.638Z,28.50
2023-02-11T04:25:46.531Z,27.40
2023-02-11T04:28:13.983Z,27.50
2023-02-11T04:30:41.082Z,25.40
2023-02-11T04:33:07.989Z,26.20
2023-02-11T04:35:34.863Z,25.97
2023-02-11T04:38:01.805Z,25.87
2023-02-11T04:40:30.024Z,25.90
2023-02-11T04:42:57.150Z,25.10
2023-02-11T04:45:24.352Z,27.03
2023-02-11T04:47:51.341Z,30.30
2023-02-11T04:50:18.402Z,26.97
2023-02-11T04:52:45.249Z,28.73
2023-02-11T04:55:12.198Z,28.77
2023-02-11T04:57:40.457Z,28.17
2023-02-11T05:00:09.954Z,28.97
2023-02-11T05:02:36.832Z,30.97
2023-02-11T05:05:04.611Z,29.27
2023-02-11T05:07:31.641Z,29.97
2023-02-11T05:09:58.572Z,33.53
2023-02-11T05:12:25.670Z,29.67
2023-02-11T05:14:53.966Z,28.40
2023-02-11T05:17:20.832Z,25.47
2023-02-11T05:19:47.701Z,29.40
2023-02-11T05:22:14.768Z,28.67
2023-02-11T05:24:41.627Z,31.87
2023-02-11T05:27:08.528Z,32.10
2023-02-11T05:29:35.609Z,28.90
2023-02-11T05:32:04.122Z,28.03
2023-02-11T05:34:31.012Z,29.60
2023-02-11T05:36:57.917Z,28.03
2023-02-11T05:39:24.764Z,25.03
2023-02-11T05:41:51.627Z,28.27
2023-02-11T05:44:18.497Z,27.63
2023-02-11T05:46:45.563Z,27.13
2023-02-11T05:49:13.799Z,26.43
2023-02-11T05:51:41.092Z,26.67
2023-02-11T05:54:07.963Z,26.10
2023-02-11T05:56:35.102Z,27.40
2023-02-11T05:59:01.986Z,29.10
2023-02-11T06:01:28.848Z,27.23
2023-02-11T06:03:55.876Z,26.07
2023-02-11T06:06:24.183Z,28.63
2023-02-11T06:08:51.049Z,25.40
2023-02-11T06:11:18.334Z,29.37
2023-02-11T06:13:45.269Z,26.57
2023-02-11T06:16:12.256Z,27.93
2023-02-11T06:18:39.173Z,28.20
2023-02-11T06:21:07.537Z,26.90
2023-02-11T06:23:35.935Z,29.77
2023-02-11T06:26:03.210Z,29.17
2023-02-11T06:28:33.185Z,26.70
2023-02-11T06:31:06.491Z,24.67
2023-02-11T06:33:34.174Z,27.10
2023-02-11T06:36:01.323Z,27.80
2023-02-11T06:38:28.263Z,24.10
2023-02-11T06:40:56.691Z,26.50
2023-02-11T06:43:23.563Z,25.90
2023-02-11T06:45:54.245Z,28.80
2023-02-11T06:48:21.582Z,22.73
2023-02-11T06:50:48.480Z,27.27
2023-02-11T06:53:15.375Z,29.80
2023-02-11T06:55:42.338Z,30.40
2023-02-11T06:58:10.563Z,25.27
2023-02-11T07:00:38.234Z,27.13
2023-02-11T07:03:05.229Z,23.97
2023-02-11T07:05:34.299Z,24.63
2023-02-11T07:08:01.259Z,29.53
2023-02-11T07:10:28.635Z,25.67
2023-02-11T07:12:58.646Z,24.60
2023-02-11T07:15:27.020Z,25.13
2023-02-11T07:17:53.885Z,25.50
2023-02-11T07:20:20.776Z,23.70
2023-02-11T07:22:47.640Z,24.90
2023-02-11T07:25:14.621Z,25.23
2023-02-11T07:27:41.502Z,24.50
2023-02-11T07:30:09.825Z,22.07
2023-02-11T07:32:38.040Z,26.00
2023-02-11T07:35:05.772Z,28.07
2023-02-11T07:37:34.558Z,24.97
2023-02-11T07:40:01.550Z,23.47
2023-02-11T07:42:28.455Z,23.47
2023-02-11T07:44:55.311Z,24.13
2023-02-11T07:47:22.178Z,25.73
2023-02-11T07:49:50.513Z,23.80
2023-02-11T07:52:17.371Z,24.33
2023-02-11T07:54:44.375Z,26.10
2023-02-11T07:57:11.278Z,23.00
2023-02-11T07:59:38.166Z,24.40
2023-02-11T08:02:05.278Z,24.37
2023-02-11T08:04:32.225Z,25.50
2023-02-11T08:07:00.426Z,23.57
2023-02-11T08:09:27.258Z,21.33
2023-02-11T08:11:54.103Z,23.63
2023-02-11T08:14:21.011Z,21.70
2023-02-11T08:16:48.039Z,25.97
2023-02-11T08:19:17.178Z,24.33
2023-02-11T08:21:44.657Z,22.50
2023-02-11T08:24:12.933Z,23.27
2023-02-11T08:26:40.288Z,23.50
2023-02-11T08:29:09.725Z,24.30
2023-02-11T08:31:38.797Z,24.53
2023-02-11T08:34:06.221Z,21.87
2023-02-11T08:36:35.415Z,21.03
2023-02-11T08:39:19.177Z,22.23
2023-02-11T08:41:49.150Z,22.43
2023-02-11T08:44:16.384Z,20.60
2023-02-11T08:46:43.375Z,21.33
2023-02-11T08:49:10.278Z,22.70
2023-02-11T08:51:37.369Z,19.27
2023-02-11T08:54:04.481Z,20.17
2023-02-11T08:56:33.135Z,19.33
2023-02-11T08:59:01.547Z,19.87
2023-02-11T09:01:29.476Z,20.03
2023-02-11T09:03:57.122Z,18.40
2023-02-11T09:06:25.248Z,19.60
2023-02-11T09:08:54.513Z,18.90
2023-02-11T09:11:25.135Z,18.90
2023-02-11T09:13:54.280Z,16.30
2023-02-11T09:16:23.993Z,19.17
2023-02-11T09:18:50.990Z,16.40
2023-02-11T09:21:19.223Z,18.80
2023-02-11T09:23:47.860Z,16.43
2023-02-11T09:26:16.834Z,16.67
2023-02-11T09:28:44.319Z,16.00
2023-02-11T09:31:13.190Z,17.33
2023-02-11T09:33:47.968Z,17.40
2023-02-11T09:36:17.070Z,17.43
2023-02-11T09:38:44.677Z,16.43
2023-02-11T09:41:32.971Z,15.80
2023-02-11T09:44:02.975Z,14.37
2023-02-11T09:46:34.422Z,15.50
2023-02-11T09:49:04.826Z,14.87
2023-02-11T09:51:42.145Z,14.03
2023-02-11T09:54:18.426Z,14.83
2023-02-11T09:56:45.462Z,15.37
2023-02-11T09:59:14.919Z,14.53
2023-02-11T10:01:49.374Z,15.90
2023-02-11T10:04:32.242Z,16.07
2023-02-11T10:07:07.532Z,15.50
2023-02-11T10:09:57.348Z,14.57
2023-02-11T10:12:44.512Z,16.43
2023-02-11T10:15:24.619Z,15.53
2023-02-11T10:18:16.414Z,14.30
2023-02-11T10:20:53.261Z,13.73
2023-02-11T10:23:25.705Z,14.27
2023-02-11T10:25:54.727Z,15.57
2023-02-11T10:28:24.942Z,14.17
2023-02-11T10:30:58.431Z,13.87
2023-02-11T10:33:29.901Z,15.20
2023-02-11T10:35:58.249Z,13.77
2023-02-11T10:38:25.261Z,13.83
2023-02-11T10:40:52.398Z,12.43
2023-02-11T10:43:23.686Z,14.83
2023-02-11T10:45:52.432Z,12.93
2023-02-11T10:48:41.723Z,14.67
2023-02-11T10:51:17.856Z,13.10
2023-02-11T10:53:45.764Z,13.27
2023-02-11T10:56:20.973Z,13.20
2023-02-11T10:58:58.659Z,13.23
2023-02-11T11:01:39.251Z,12.97
2023-02-11T11:04:06.687Z,11.47
2023-02-11T11:06:35.369Z,12.13
2023-02-11T11:09:02.273Z,12.50
2023-02-11T11:11:29.319Z,12.67
2023-02-11T11:13:59.107Z,12.10
2023-02-11T11:16:28.212Z,11.37
2023-02-11T11:19:16.362Z,13.07
2023-02-11T11:21:46.376Z,12.03
2023-02-11T11:24:18.814Z,13.97
2023-02-11T11:26:48.605Z,11.40
2023-02-11T11:29:19.023Z,10.10
2023-02-11T11:31:50.311Z,10.63
2023-02-11T11:34:23.653Z,8.57
2023-02-11T11:36:52.137Z,11.87
2023-02-11T11:39:23.669Z,11.93
2023-02-11T11:41:53.044Z,10.43
2023-02-11T11:44:30.016Z,11.97
2023-02-11T11:47:19.151Z,9.70
2023-02-11T11:49:51.656Z,10.43
2023-02-11T11:52:39.692Z,9.40
2023-02-11T11:55:14.543Z,11.83
2023-02-11T11:57:41.657Z,11.23
2023-02-11T12:00:16.887Z,11.13
2023-02-11T12:03:22.973Z,9.43
2023-02-11T12:06:06.254Z,10.40
2023-02-11T12:08:44.178Z,9.67
2023-02-11T12:11:22.068Z,8.60
2023-02-11T12:14:05.570Z,11.27
2023-02-11T12:16:43.564Z,10.30
2023-02-11T12:19:49.784Z,12.53
2023-02-11T12:22:30.741Z,9.93
2023-02-11T12:25:15.415Z,11.30
2023-02-11T12:27:50.264Z,10.50
2023-02-11T12:30:28.645Z,10.20
2023-02-11T12:33:04.773Z,11.33
2023-02-11T12:35:42.635Z,9.83
2023-02-11T12:38:25.392Z,10.80
2023-02-11T12:41:00.645Z,10.17
2023-02-11T12:43:35.763Z,10.83
2023-02-11T12:46:30.680Z,9.00
2023-02-11T12:49:11.656Z,9.43
2023-02-11T12:51:51.446Z,9.13
2023-02-11T12:54:25.576Z,7.87
2023-02-11T12:57:02.067Z,9.10
2023-02-11T12:59:46.672Z,11.63
2023-02-11T13:02:23.712Z,9.93
2023-02-11T13:04:54.032Z,10.50
2023-02-11T13:07:27.381Z,10.60
2023-02-11T13:10:00.177Z,10.10
2023-02-11T13:12:51.058Z,12.53
2023-02-11T13:15:18.613Z,13.43
2023-02-11T13:17:56.010Z,14.77
2023-02-11T13:20:35.961Z,14.63
2023-02-11T13:23:13.484Z,13.87
2023-02-11T13:25:46.517Z,13.97
2023-02-11T13:28:27.930Z,13.17
2023-02-11T13:31:02.618Z,13.27
2023-02-11T13:33:35.059Z,13.27
2023-02-11T13:36:22.621Z,12.10
2023-02-11T13:39:01.499Z,10.73
2023-02-11T13:41:33.751Z,9.90
2023-02-11T13:44:22.512Z,9.73
2023-02-11T13:46:55.023Z,9.73
2023-02-11T13:49:24.858Z,10.17
2023-02-11T13:51:53.068Z,8.13
2023-02-11T13:54:33.328Z,11.33
2023-02-11T13:57:27.628Z,8.07
2023-02-11T13:59:58.251Z,7.83
2023-02-11T14:02:48.428Z,9.13
2023-02-11T14:05:43.945Z,7.87
2023-02-11T14:08:36.848Z,9.20
2023-02-11T14:11:08.666Z,8.60
2023-02-11T14:13:36.954Z,9.87
2023-02-11T14:16:07.547Z,7.80
2023-02-11T14:19:00.676Z,10.07
2023-02-11T14:21:36.447Z,10.40
2023-02-11T14:24:46.575Z,8.70
2023-02-11T14:27:23.845Z,9.03
2023-02-11T14:30:07.711Z,10.63
2023-02-11T14:32:45.652Z,8.63
2023-02-11T14:35:22.535Z,11.47
2023-02-11T14:37:57.886Z,9.03
2023-02-11T14:40:30.828Z,10.23
2023-02-11T14:43:02.784Z,9.77
2023-02-11T14:45:31.085Z,8.13
2023-02-11T14:48:04.563Z,9.73
2023-02-11T14:50:36.621Z,9.17
2023-02-11T14:53:06.199Z,10.27
2023-02-11T14:55:37.122Z,9.97
2023-02-11T14:58:13.109Z,8.57
2023-02-11T15:00:49.229Z,11.37
2023-02-11T15:03:29.086Z,10.00
2023-02-11T15:05:58.022Z,11.97
2023-02-11T15:08:25.660Z,11.33
2023-02-11T15:10:55.316Z,12.77
2023-02-11T15:13:27.175Z,13.20
2023-02-11T15:15:59.142Z,14.33
2023-02-11T15:18:36.475Z,11.63
2023-02-11T15:21:03.862Z,12.70
2023-02-11T15:23:31.335Z,12.63
2023-02-11T15:26:03.158Z,15.67
2023-02-11T15:28:32.933Z,13.77
2023-02-11T15:31:02.560Z,12.43
2023-02-11T15:33:32.725Z,14.90
2023-02-11T15:36:00.415Z,13.23
2023-02-11T15:38:27.756Z,13.27
2023-02-11T15:40:56.910Z,12.67
2023-02-11T15:43:24.345Z,12.50
2023-02-11T15:46:01.127Z,11.70
2023-02-11T15:48:36.898Z,12.10
2023-02-11T15:51:08.552Z,11.90
2023-02-11T15:53:40.575Z,13.03
2023-02-11T15:56:12.803Z,13.60
2023-02-11T15:58:42.306Z,14.13
2023-02-11T16:01:09.658Z,13.83
2023-02-11T16:03:38.219Z,15.23
2023-02-11T16:06:20.000Z,16.17
2023-02-11T16:09:01.284Z,14.87
2023-02-11T16:11:31.116Z,14.43
2023-02-11T16:13:59.969Z,15.13
2023-02-11T16:16:29.989Z,16.57
2023-02-11T16:19:05.284Z,17.10
2023-02-11T16:21:39.248Z,16.53
2023-02-11T16:24:07.914Z,18.40
2023-02-11T16:26:39.226Z,16.80
2023-02-11T16:29:10.264Z,18.10
2023-02-11T16:31:39.601Z,16.07
2023-02-11T16:34:13.460Z,15.23
2023-02-11T16:36:40.390Z,15.33
2023-02-11T16:39:07.313Z,19.00
2023-02-11T16:41:34.195Z,16.63
2023-02-11T16:44:01.263Z,16.83
2023-02-11T16:46:28.374Z,17.80
2023-02-11T16:48:56.187Z,17.60
2023-02-11T16:51:24.489Z,15.87
2023-02-11T16:53:51.309Z,16.63
2023-02-11T16:56:18.464Z,18.47
2023-02-11T16:58:45.672Z,18.27
2023-02-11T17:01:14.183Z,17.73
2023-02-11T17:03:43.502Z,16.57
2023-02-11T17:06:11.683Z,18.43
2023-02-11T17:08:40.258Z,16.57
2023-02-11T17:11:07.150Z,21.10
2023-02-11T17:13:34.164Z,17.23
2023-02-11T17:16:01.137Z,17.93
2023-02-11T17:18:28.054Z,16.73
2023-02-11T17:20:54.938Z,18.27
2023-02-11T17:23:21.857Z,15.80
2023-02-11T17:25:56.678Z,16.97
2023-02-11T17:28:23.612Z,18.97
2023-02-11T17:30:50.622Z,18.57
2023-02-11T17:33:18.936Z,18.20
2023-02-11T17:35:46.137Z,17.33
2023-02-11T17:38:13.029Z,18.67
2023-02-11T17:40:39.988Z,18.43
2023-02-11T17:43:08.281Z,18.97
2023-02-11T17:45:40.169Z,16.63
2023-02-11T17:48:07.065Z,18.00
2023-02-11T17:50:35.724Z,17.57
2023-02-11T17:53:02.645Z,17.03
2023-02-11T17:55:33.006Z,17.97
2023-02-11T17:58:00.236Z,19.27
2023-02-11T18:00:28.632Z,18.23
2023-02-11T18:02:57.605Z,18.77
2023-02-11T18:05:26.610Z,19.63
2023-02-11T18:07:55.056Z,17.30
2023-02-11T18:10:22.020Z,19.40
2023-02-11T18:12:48.970Z,18.07
2023-02-11T18:15:15.988Z,18.07
2023-02-11T18:17:44.315Z,20.17
2023-02-11T18:20:11.749Z,20.37
2023-02-11T18:22:40.868Z,18.43
2023-02-11T18:25:08.575Z,21.40
2023-02-11T18:27:35.492Z,18.93
2023-02-11T18:30:02.504Z,19.07
2023-02-11T18:32:29.563Z,20.97
2023-02-11T18:34:57.736Z,20.10
2023-02-11T18:37:25.354Z,21.03
2023-02-11T18:39:52.385Z,17.33
2023-02-11T18:42:19.493Z,19.13
2023-02-11T18:44:46.541Z,21.57
2023-02-11T18:47:13.664Z,19.80
2023-02-11T18:49:40.551Z,23.70
2023-02-11T18:52:08.754Z,20.73
2023-02-11T18:54:35.612Z,19.23
2023-02-11T18:57:02.535Z,19.87
2023-02-11T18:59:29.839Z,20.47
2023-02-11T19:01:56.734Z,21.83
2023-02-11T19:04:23.689Z,20.47
2023-02-11T19:06:50.985Z,21.83
2023-02-11T19:09:20.823Z,21.63
2023-02-11T19:11:47.849Z,21.07
2023-02-11T19:14:17.236Z,22.03
2023-02-11T19:16:46.278Z,21.47
2023-02-11T19:19:13.799Z,22.20
2023-02-11T19:21:42.538Z,20.40
2023-02-11T19:24:10.320Z,21.33
2023-02-11T19:26:38.992Z,24.70
2023-02-11T19:29:06.562Z,23.83
2023-02-11T19:31:34.061Z,22.87
2023-02-11T19:34:01.780Z,23.13
2023-02-11T19:36:29.427Z,23.40
2023-02-11T19:38:58.522Z,25.23
2023-02-11T19:41:25.392Z,23.33
2023-02-11T19:43:53.679Z,22.80
2023-02-11T19:46:23.736Z,22.03
2023-02-11T19:48:51.112Z,22.63
2023-02-11T19:51:18.516Z,22.90
2023-02-11T19:53:45.753Z,21.83
2023-02-11T19:56:13.470Z,20.60
2023-02-11T19:58:41.097Z,21.40
2023-02-11T20:01:11.722Z,20.57
2023-02-11T20:03:41.439Z,25.60
2023-02-11T20:06:13.062Z,20.83
2023-02-11T20:08:39.995Z,20.00
2023-02-11T20:11:08.168Z,21.07
2023-02-11T20:13:35.165Z,22.53
2023-02-11T20:16:07.238Z,20.70
2023-02-11T20:18:36.661Z,25.00
2023-02-11T20:21:07.098Z,25.03
2023-02-11T20:23:34.129Z,23.20
2023-02-11T20:26:06.208Z,21.13
2023-02-11T20:28:33.227Z,22.47
2023-02-11T20:31:00.536Z,21.07
2023-02-11T20:33:29.787Z,22.27
2023-02-11T20:35:59.845Z,22.17
2023-02-11T20:38:27.531Z,22.43
2023-02-11T20:40:55.445Z,22.53
2023-02-11T20:43:22.911Z,22.73
2023-02-11T20:45:50.241Z,23.43
2023-02-11T20:48:17.390Z,25.13
2023-02-11T20:50:46.589Z,26.57
2023-02-11T20:53:16.245Z,27.07
2023-02-11T20:55:43.121Z,29.63
2023-02-11T20:58:10.021Z,26.87
2023-02-11T21:00:37.307Z,25.47
2023-02-11T21:03:04.782Z,27.63
2023-02-11T21:05:31.783Z,27.57
2023-02-11T21:07:58.645Z,24.63
2023-02-11T21:10:27.315Z,25.93
2023-02-11T21:12:54.574Z,25.43
2023-02-11T21:15:24.119Z,24.20
2023-02-11T21:17:51.346Z,25.47
2023-02-11T21:20:18.507Z,25.43
2023-02-11T21:22:45.393Z,23.03
2023-02-11T21:25:12.338Z,24.70
2023-02-11T21:27:40.548Z,26.47
2023-02-11T21:30:11.142Z,24.13
2023-02-11T21:32:38.042Z,25.03
2023-02-11T21:35:05.589Z,23.17
2023-02-11T21:37:32.542Z,26.13
2023-02-11T21:39:59.488Z,24.77
2023-02-11T21:42:26.544Z,25.00
2023-02-11T21:44:54.761Z,24.00
2023-02-11T21:47:21.653Z,21.80
2023-02-11T21:49:48.504Z,25.10
2023-02-11T21:52:15.400Z,25.57
2023-02-11T21:54:42.269Z,23.53
2023-02-11T21:57:09.152Z,21.70
2023-02-11T21:59:36.117Z,22.10
2023-02-11T22:02:04.355Z,22.77
2023-02-11T22:04:31.338Z,22.27
2023-02-11T22:06:58.245Z,21.20
2023-02-11T22:09:25.152Z,19.97
2023-02-11T22:11:53.006Z,21.23
2023-02-11T22:14:20.046Z,23.20
2023-02-11T22:16:47.647Z,24.70
2023-02-11T22:19:15.967Z,26.70
2023-02-11T22:21:43.524Z,23.43
2023-02-11T22:24:10.506Z,23.67
2023-02-11T22:26:38.326Z,24.30
2023-02-11T22:29:05.246Z,22.50
2023-02-11T22:31:33.979Z,22.03
2023-02-11T22:34:02.112Z,24.30
2023-02-11T22:36:32.266Z,26.07
2023-02-11T22:39:00.966Z,25.60
2023-02-11T22:41:28.310Z,24.43
2023-02-11T22:43:55.319Z,24.43
2023-02-11T22:46:22.396Z,26.63
2023-02-11T22:48:50.045Z,25.43
2023-02-11T22:51:19.378Z,21.27
2023-02-11T22:53:51.488Z,24.03
2023-02-11T22:56:18.930Z,27.90
2023-02-11T22:58:45.757Z,27.80
2023-02-11T23:01:13.413Z,27.00
2023-02-11T23:03:40.435Z,28.23
2023-02-11T23:06:07.614Z,27.37
2023-02-11T23:08:35.120Z,26.57
2023-02-11T23:11:08.798Z,28.20
2023-02-11T23:13:37.552Z,26.37
2023-02-11T23:16:06.781Z,27.20
2023-02-11T23:18:34.337Z,30.60
2023-02-11T23:21:06.708Z,30.83
2023-02-11T23:23:33.834Z,29.50
2023-02-11T23:26:01.082Z,26.87
2023-02-11T23:28:29.647Z,27.07
2023-02-11T23:30:56.663Z,27.33
2023-02-11T23:33:23.778Z,27.27
2023-02-11T23:35:50.669Z,25.70
2023-02-11T23:38:17.552Z,32.17
2023-02-11T23:40:44.480Z,29.43
2023-02-11T23:43:11.327Z,27.90
2023-02-11T23:45:39.596Z,25.60
2023-02-11T23:48:06.530Z,23.20
2023-02-11T23:50:34.463Z,27.53
2023-02-11T23:53:01.350Z,26.40
2023-02-11T23:55:28.269Z,26.87
2023-02-11T23:57:55.153Z,29.43
